Time;durP1;ratioP1;P1;durP2;ratioP2;P2;SDS_P1;SDS_P2;PMS_P1;PMS_P2;Temp;Humidity;BMP_temperature;BMP_pressure;BME280_temperature;BME280_humidity;BME280_pressure;Samples;Min_cycle;Max_cycle;Signal;HPM_P1;HPM_P2
2022/01/02 00:00:19;;;;;;;13.60;5.70;;;;;;;2.19;98.95;100402.67;104871;1273;68429;-70
2022/01/02 00:03:19;;;;;;;14.30;5.00;;;;;;;2.15;99.81;100386.89;104989;1273;74677;-70
2022/01/02 00:06:18;;;;;;;11.00;4.10;;;;;;;2.12;100.00;100384.55;104824;1273;59386;-69
2022/01/02 00:09:35;;;;;;;16.70;5.10;;;;;;;2.09;100.00;100374.52;104649;1273;59383;-70
2022/01/02 00:12:28;;;;;;;12.70;4.50;;;;;;;2.08;100.00;100371.95;104841;1273;71653;-69
2022/01/02 00:15:20;;;;;;;12.60;4.20;;;;;;;2.06;100.00;100368.15;104743;1273;67154;-70
2022/01/02 00:18:17;;;;;;;10.90;4.80;;;;;;;2.02;100.00;100367.73;104596;1273;70342;-70
2022/01/02 00:21:08;;;;;;;12.00;5.10;;;;;;;2.01;100.00;100365.16;103907;1274;1003154;-70
2022/01/02 00:24:12;;;;;;;14.20;5.70;;;;;;;2.00;100.00;100359.60;104595;1273;59412;-70
2022/01/02 00:27:02;;;;;;;10.60;4.70;;;;;;;2.00;100.00;100356.65;104831;1273;72654;-70
2022/01/02 00:29:58;;;;;;;14.60;5.50;;;;;;;2.00;100.00;100362.21;102599;1273;1015512;-70
2022/01/02 00:41:20;;;;;;;13.00;4.60;;;;;;;1.99;100.00;100327.09;104826;1277;59519;-70
2022/01/02 00:44:45;;;;;;;12.50;4.40;;;;;;;1.98;100.00;100314.52;104733;1276;70802;-70
2022/01/02 00:47:57;;;;;;;10.50;4.10;;;;;;;1.97;100.00;100300.04;104960;1276;66483;-70
2022/01/02 00:51:17;;;;;;;10.70;5.00;;;;;;;1.96;100.00;100300.10;104721;1277;73033;-70
2022/01/02 00:54:18;;;;;;;14.10;6.00;;;;;;;1.96;100.00;100304.11;105018;1276;59314;-70
2022/01/02 00:57:17;;;;;;;12.80;4.90;;;;;;;1.96;100.00;100280.63;104658;1275;59424;-70
2022/01/02 01:00:17;;;;;;;12.60;6.00;;;;;;;1.97;100.00;100276.06;104732;1277;71233;-70
2022/01/02 01:03:33;;;;;;;12.10;5.00;;;;;;;1.99;100.00;100265.16;104874;1275;66890;-70
2022/01/02 01:06:41;;;;;;;12.30;5.70;;;;;;;1.99;100.00;100257.59;104817;1277;73060;-70
2022/01/02 01:09:32;;;;;;;11.70;6.00;;;;;;;2.06;100.00;100262.96;104543;1275;59414;-70
2022/01/02 01:12:25;;;;;;;14.40;6.80;;;;;;;2.09;100.00;100250.05;104557;1274;60558;-70
2022/01/02 01:15:23;;;;;;;13.40;5.40;;;;;;;2.12;100.00;100239.96;104308;1274;1003743;-70
2022/01/02 01:18:17;;;;;;;11.90;5.80;;;;;;;2.11;100.00;100239.80;105005;1273;67434;-70
2022/01/02 01:21:07;;;;;;;13.40;6.40;;;;;;;2.11;100.00;100238.44;104799;1273;73655;-70
2022/01/02 01:23:57;;;;;;;13.20;5.30;;;;;;;2.12;100.00;100223.69;104788;1274;59414;-70
2022/01/02 01:26:50;;;;;;;14.90;6.80;;;;;;;2.14;100.00;100220.25;104755;1273;59405;-70
2022/01/02 01:29:40;;;;;;;14.10;7.10;;;;;;;2.16;100.00;100223.70;104987;1273;71533;-70
2022/01/02 01:32:33;;;;;;;14.90;6.10;;;;;;;2.17;100.00;100208.05;104800;1273;67070;-70
2022/01/02 01:35:23;;;;;;;13.80;5.90;;;;;;;2.20;100.00;100206.91;104657;1273;71827;-70
2022/01/02 01:38:13;;;;;;;15.10;5.50;;;;;;;2.21;100.00;100203.71;104576;1273;59410;-70
2022/01/02 01:41:21;;;;;;;11.70;5.10;;;;;;;2.25;100.00;100213.36;104546;1274;59890;-70
2022/01/02 01:47:10;;;;;;;12.20;5.60;;;;;;;2.31;100.00;100192.09;104929;1273;68003;-70
2022/01/02 01:50:07;;;;;;;11.00;4.60;;;;;;;2.33;100.00;100199.71;104762;1273;71536;-69
2022/01/02 01:53:02;;;;;;;13.10;6.20;;;;;;;2.34;100.00;100198.27;104556;1273;59300;-69
2022/01/02 01:55:56;;;;;;;15.60;7.10;;;;;;;2.37;100.00;100201.64;105144;1273;60586;-69
2022/01/02 01:58:49;;;;;;;14.20;6.40;;;;;;;2.41;100.00;100212.52;104636;1273;71191;-70
2022/01/02 02:01:40;;;;;;;14.10;7.00;;;;;;;2.45;100.00;100189.08;104743;1274;68045;-69
2022/01/02 02:04:33;;;;;;;13.00;6.50;;;;;;;2.47;100.00;100159.05;104709;1273;71873;-69
2022/01/02 02:07:28;;;;;;;12.10;5.60;;;;;;;2.49;100.00;100138.98;104784;1273;59369;-69
2022/01/02 02:10:33;;;;;;;11.90;4.80;;;;;;;2.51;100.00;100133.13;104819;1273;59495;-70
2022/01/02 02:13:42;;;;;;;13.60;5.70;;;;;;;2.55;100.00;100131.20;104837;1273;72749;-70
2022/01/02 02:16:39;;;;;;;10.90;5.00;;;;;;;2.57;100.00;100127.94;105082;1273;66980;-70
2022/01/02 02:19:32;;;;;;;11.80;5.50;;;;;;;2.60;100.00;100116.27;105175;1274;71695;-70
2022/01/02 02:22:27;;;;;;;14.30;6.20;;;;;;;2.63;100.00;100102.45;104865;1273;59407;-70
2022/01/02 02:25:21;;;;;;;13.50;5.90;;;;;;;2.65;100.00;100091.67;104670;1273;59390;-70
2022/01/02 02:28:17;;;;;;;10.50;4.90;;;;;;;2.70;100.00;100083.23;105052;1273;70151;-70
2022/01/02 02:31:10;;;;;;;12.20;6.00;;;;;;;2.71;100.00;100074.76;104629;1273;66754;-69
2022/01/02 02:34:44;;;;;;;13.00;5.90;;;;;;;2.75;100.00;100064.98;104867;1274;73134;-69
2022/01/02 02:37:37;;;;;;;9.90;4.70;;;;;;;2.77;100.00;100059.11;105133;1273;59370;-69
2022/01/02 02:40:37;;;;;;;10.60;4.80;;;;;;;2.77;100.00;100045.75;104615;1274;59760;-69
2022/01/02 02:44:20;;;;;;;11.60;5.40;;;;;;;2.81;100.00;100035.95;104911;1274;71240;-69
2022/01/02 02:49:59;;;;;;;10.80;4.90;;;;;;;2.89;100.00;100032.77;105203;1273;73021;-69
2022/01/02 02:52:54;;;;;;;13.00;5.40;;;;;;;2.93;100.00;100023.11;104652;1273;59282;-70
2022/01/02 02:55:47;;;;;;;13.70;6.00;;;;;;;2.98;100.00;100018.88;104694;1274;59352;-70
2022/01/02 02:58:55;;;;;;;12.10;5.50;;;;;;;3.02;100.00;100013.95;104806;1274;70135;-70
2022/01/02 03:01:54;;;;;;;14.90;6.00;;;;;;;3.06;100.00;99999.04;105061;1273;66815;-70
2022/01/02 03:04:46;;;;;;;12.70;5.80;;;;;;;3.14;100.00;99993.60;104831;1274;72766;-70
2022/01/02 03:07:36;;;;;;;14.70;6.50;;;;;;;3.18;100.00;99986.20;104682;1273;59411;-69
2022/01/02 03:10:25;;;;;;;13.20;5.90;;;;;;;3.22;100.00;99983.36;104644;1273;59344;-70
2022/01/02 03:13:23;;;;;;;13.40;6.10;;;;;;;3.28;100.00;99977.11;104616;1274;71307;-69
2022/01/02 03:17:02;;;;;;;;;;;;;;;;;;;;;
2022/01/02 03:21:13;;;;;;;12.70;6.20;;;;;;;3.42;100.00;99960.66;105040;1273;73298;-70
2022/01/02 03:24:44;;;;;;;15.50;6.10;;;;;;;3.48;100.00;99942.98;104439;1279;59327;-71
2022/01/02 03:27:57;;;;;;;14.50;5.90;;;;;;;3.55;100.00;99934.37;104137;1279;59759;-70
2022/01/02 03:31:33;;;;;;;14.40;5.80;;;;;;;3.65;100.00;99933.55;104486;1279;72796;-70
2022/01/02 03:34:49;;;;;;;14.60;6.30;;;;;;;3.70;100.00;99916.96;104028;1279;68149;-70
2022/01/02 03:37:43;;;;;;;13.80;5.80;;;;;;;3.78;100.00;99908.86;104304;1279;73041;-70
2022/01/02 03:40:34;;;;;;;14.40;5.60;;;;;;;3.84;100.00;99918.54;104124;1279;59441;-70
2022/01/02 03:43:25;;;;;;;15.70;6.90;;;;;;;3.89;100.00;99917.21;104294;1279;59372;-70
2022/01/02 03:46:15;;;;;;;15.30;6.80;;;;;;;3.95;100.00;99900.94;104353;1279;73072;-70
2022/01/02 03:49:11;;;;;;;16.30;7.00;;;;;;;3.98;100.00;99890.40;104323;1279;68166;-70
2022/01/02 03:52:24;;;;;;;17.50;6.80;;;;;;;4.05;100.00;99871.42;104518;1279;73250;-70
2022/01/02 03:55:15;;;;;;;14.40;6.60;;;;;;;4.09;100.00;99869.64;104105;1279;59672;-70
2022/01/02 03:58:12;;;;;;;16.10;6.60;;;;;;;4.12;100.00;99856.45;104081;1281;60572;-70
2022/01/02 04:01:05;;;;;;;17.30;6.80;;;;;;;4.16;100.00;99845.05;104199;1274;72541;-70
2022/01/02 04:04:01;;;;;;;16.90;6.30;;;;;;;4.18;100.00;99834.70;104759;1276;67990;-70
2022/01/02 04:06:51;;;;;;;17.10;7.30;;;;;;;4.21;100.00;99824.35;104524;1275;73069;-70
2022/01/02 04:09:50;;;;;;;15.90;7.00;;;;;;;4.26;100.00;99815.86;104506;1274;59703;-70
2022/01/02 04:12:56;;;;;;;16.40;6.90;;;;;;;4.29;100.00;99810.76;104873;1275;59305;-70
2022/01/02 04:15:49;;;;;;;15.50;6.80;;;;;;;4.34;100.00;99811.02;105125;1276;72651;-70
2022/01/02 04:18:39;;;;;;;14.50;6.30;;;;;;;4.38;100.00;99809.89;104559;1276;68124;-70
2022/01/02 04:21:37;;;;;;;15.60;7.00;;;;;;;4.44;100.00;99800.45;104551;1274;73366;-70
2022/01/02 04:24:27;;;;;;;16.60;7.40;;;;;;;4.49;100.00;99793.13;104551;1277;60795;-70
2022/01/02 04:27:19;;;;;;;17.50;7.80;;;;;;;4.54;100.00;99793.55;104764;1274;59296;-69
2022/01/02 04:30:15;;;;;;;17.20;7.80;;;;;;;4.58;100.00;99786.31;104608;1275;72668;-69
2022/01/02 04:33:48;;;;;;;14.20;7.00;;;;;;;4.65;100.00;99786.62;104924;1278;68092;-72
2022/01/02 04:36:54;;;;;;;;;;;;;;;;;;;;;
2022/01/02 04:39:54;;;;;;;16.90;7.50;;;;;;;4.76;100.00;99775.06;105178;1276;59563;-72
2022/01/02 04:42:48;;;;;;;16.30;7.30;;;;;;;4.79;100.00;99760.13;104493;1278;60808;-70
2022/01/02 04:45:51;;;;;;;16.10;7.40;;;;;;;4.84;100.00;99755.10;104695;1276;71507;-70
2022/01/02 04:48:42;;;;;;;18.00;8.00;;;;;;;4.88;100.00;99751.00;104744;1276;68214;-70
2022/01/02 04:51:37;;;;;;;23.30;9.70;;;;;;;4.93;100.00;99751.61;104843;1277;72861;-71
2022/01/02 04:54:28;;;;;;;17.30;7.70;;;;;;;4.99;100.00;99761.11;104940;1276;59797;-70
2022/01/02 04:57:30;;;;;;;18.60;7.60;;;;;;;5.06;100.00;99757.70;104589;1276;60709;-70
2022/01/02 05:00:20;;;;;;;15.20;7.30;;;;;;;5.13;100.00;99758.67;104753;1280;73129;-71
2022/01/02 05:03:12;;;;;;;16.20;7.60;;;;;;;5.18;100.00;99747.82;104740;1276;68257;-70
2022/01/02 05:06:06;;;;;;;16.10;6.70;;;;;;;5.24;100.00;99744.81;104879;1275;72934;-71
2022/01/02 05:08:56;;;;;;;14.60;6.40;;;;;;;5.30;100.00;99738.66;104919;1275;60004;-70
2022/01/02 05:11:50;;;;;;;15.70;6.70;;;;;;;5.37;100.00;99726.27;104926;1276;60826;-70
2022/01/02 05:14:49;;;;;;;15.50;6.70;;;;;;;5.42;100.00;99715.71;105020;1275;72932;-70
2022/01/02 05:17:40;;;;;;;18.60;8.50;;;;;;;5.48;100.00;99715.39;105052;1274;68127;-70
2022/01/02 05:20:34;;;;;;;18.00;8.30;;;;;;;5.54;100.00;99720.09;105201;1274;73094;-71
2022/01/02 05:23:31;;;;;;;22.20;7.90;;;;;;;5.60;100.00;99715.85;105243;1275;60094;-70
2022/01/02 05:26:24;;;;;;;18.20;8.70;;;;;;;5.67;100.00;99717.41;105212;1274;59414;-70
2022/01/02 05:29:18;;;;;;;16.80;8.50;;;;;;;5.72;100.00;99717.94;104861;1276;72686;-70
2022/01/02 05:32:08;;;;;;;15.00;7.90;;;;;;;5.77;100.00;99719.05;104772;1276;68130;-70
2022/01/02 05:35:23;;;;;;;14.60;7.30;;;;;;;5.81;100.00;99716.31;105502;1276;72705;-70
2022/01/02 05:38:15;;;;;;;18.20;7.90;;;;;;;5.86;100.00;99714.59;104880;1274;60161;-71
2022/01/02 05:41:28;;;;;;;19.50;7.80;;;;;;;5.90;100.00;99712.41;104950;1275;60869;-71
2022/01/02 05:44:38;;;;;;;16.90;7.80;;;;;;;5.94;100.00;99709.66;105228;1274;72805;-69
2022/01/02 05:47:30;;;;;;;14.70;7.40;;;;;;;5.98;100.00;99700.66;104801;1274;67833;-71
2022/01/02 05:50:36;;;;;;;15.60;8.20;;;;;;;6.04;100.00;99689.54;104808;1276;73195;-69
2022/01/02 05:53:27;;;;;;;15.20;6.90;;;;;;;6.07;100.00;99670.13;104663;1274;59725;-69
2022/01/02 05:56:18;;;;;;;16.50;7.50;;;;;;;6.10;100.00;99658.33;104754;1276;60658;-70
2022/01/02 05:59:08;;;;;;;17.70;8.10;;;;;;;6.13;100.00;99646.27;104903;1274;71632;-70
2022/01/02 06:02:02;;;;;;;16.10;8.30;;;;;;;6.15;100.00;99647.94;104809;1274;68276;-70
2022/01/02 06:04:53;;;;;;;16.20;6.90;;;;;;;6.14;100.00;99644.50;104627;1276;73078;-70
2022/01/02 06:07:46;;;;;;;17.30;6.70;;;;;;;6.16;100.00;99645.05;104670;1276;59419;-71
2022/01/02 06:10:59;;;;;;;16.30;8.20;;;;;;;6.16;100.00;99639.23;104961;1274;60469;-69
2022/01/02 06:13:55;;;;;;;16.30;7.60;;;;;;;6.18;100.00;99630.33;104971;1274;72676;-69
2022/01/02 06:16:49;;;;;;;17.40;7.90;;;;;;;6.19;100.00;99623.88;105038;1275;66872;-69
2022/01/02 06:19:51;;;;;;;16.60;7.40;;;;;;;6.22;100.00;99616.34;104881;1276;73177;-70
2022/01/02 06:22:42;;;;;;;16.40;9.00;;;;;;;6.24;100.00;99606.98;105244;1275;59314;-69
2022/01/02 06:25:33;;;;;;;14.60;7.50;;;;;;;6.27;100.00;99597.83;105157;1274;60592;-69
2022/01/02 06:28:24;;;;;;;17.80;8.90;;;;;;;6.29;100.00;99595.06;105155;1275;72532;-70
2022/01/02 06:31:16;;;;;;;18.00;8.30;;;;;;;6.32;100.00;99591.15;104896;1276;68745;-70
2022/01/02 06:34:11;;;;;;;19.70;8.90;;;;;;;6.35;100.00;99589.56;105020;1275;73535;-71
2022/01/02 06:37:01;;;;;;;15.90;8.00;;;;;;;6.38;100.00;99583.19;104972;1275;59301;-70
2022/01/02 06:39:54;;;;;;;16.70;8.70;;;;;;;6.43;100.00;99585.33;105272;1276;61100;-69
2022/01/02 06:42:53;;;;;;;19.10;9.40;;;;;;;6.48;100.00;99585.16;105130;1274;72563;-70
2022/01/02 06:45:48;;;;;;;17.80;8.80;;;;;;;6.53;100.00;99576.33;104902;1274;67175;-70
2022/01/02 06:49:17;;;;;;;16.50;8.60;;;;;;;6.58;100.00;99575.14;104959;1276;73068;-70
2022/01/02 06:52:13;;;;;;;17.70;9.40;;;;;;;6.62;100.00;99575.33;105240;1274;59134;-70
2022/01/02 06:55:46;;;;;;;20.90;9.80;;;;;;;6.68;100.00;99571.83;105546;1274;59322;-70
2022/01/02 06:58:57;;;;;;;18.40;8.70;;;;;;;6.72;100.00;99550.36;104792;1275;72744;-69
2022/01/02 07:02:02;;;;;;;19.20;9.30;;;;;;;6.75;100.00;99540.10;104818;1275;68858;-70
2022/01/02 07:04:53;;;;;;;18.90;10.30;;;;;;;6.79;100.00;99536.95;105015;1276;70888;-69
2022/01/02 07:07:46;;;;;;;17.70;8.90;;;;;;;6.82;100.00;99527.91;104955;1277;60160;-69
2022/01/02 07:10:55;;;;;;;20.10;9.70;;;;;;;6.86;100.00;99523.24;105238;1275;59518;-70
2022/01/02 07:13:51;;;;;;;19.70;10.70;;;;;;;6.90;100.00;99523.52;105046;1275;71703;-71
2022/01/02 07:16:46;;;;;;;19.80;10.40;;;;;;;6.94;100.00;99518.46;105007;1275;68561;-70
2022/01/02 07:19:51;;;;;;;20.40;10.40;;;;;;;6.99;100.00;99515.96;105080;1276;72889;-71
2022/01/02 07:23:00;;;;;;;22.70;10.80;;;;;;;7.04;100.00;99511.05;105137;1276;59282;-70
2022/01/02 07:26:25;;;;;;;21.80;10.80;;;;;;;7.09;100.00;99501.91;105382;1276;59323;-71
2022/01/02 07:38:49;;;;;;;20.10;9.60;;;;;;;7.26;100.00;99486.21;105394;1274;71825;-70
2022/01/02 07:42:26;;;;;;;;;;;;;;;;;;;;;
2022/01/02 07:45:29;;;;;;;18.80;8.60;;;;;;;7.31;100.00;99479.46;105274;1275;59335;-71
2022/01/02 07:48:27;;;;;;;23.00;10.00;;;;;;;7.34;100.00;99479.09;104961;1275;70230;-71
2022/01/02 07:51:22;;;;;;;19.40;9.60;;;;;;;7.37;100.00;99474.48;105078;1275;66312;-71
2022/01/02 07:54:33;;;;;;;21.30;10.90;;;;;;;7.39;100.00;99470.62;104957;1275;71799;-70
2022/01/02 07:57:47;;;;;;;21.60;9.90;;;;;;;7.40;100.00;99458.91;104943;1276;60112;-71
2022/01/02 08:01:05;;;;;;;21.60;10.10;;;;;;;7.41;100.00;99454.23;104936;1275;60779;-71
2022/01/02 08:04:04;;;;;;;19.60;9.30;;;;;;;7.43;100.00;99449.14;104766;1276;72651;-71
2022/01/02 08:07:04;;;;;;;19.70;9.80;;;;;;;7.46;100.00;99463.19;104961;1276;67092;-70
2022/01/02 08:11:19;;;;;;;19.20;9.30;;;;;;;7.49;100.00;99459.11;104961;1275;71548;-70
2022/01/02 08:14:25;;;;;;;18.70;10.20;;;;;;;7.52;100.00;99459.06;104940;1276;60473;-70
2022/01/02 08:17:25;;;;;;;19.60;9.50;;;;;;;7.54;100.00;99459.27;104938;1276;60843;-71
2022/01/02 08:20:27;;;;;;;22.70;11.10;;;;;;;7.55;100.00;99448.42;104928;1277;71129;-70
2022/01/02 08:23:57;;;;;;;18.70;8.60;;;;;;;7.56;100.00;99445.88;105061;1275;67494;-70
2022/01/02 08:27:35;;;;;;;20.50;9.60;;;;;;;7.59;100.00;99437.02;105127;1274;71759;-70
2022/01/02 08:30:48;;;;;;;19.20;9.00;;;;;;;7.62;100.00;99427.07;105174;1274;59971;-70
2022/01/02 08:33:45;;;;;;;18.10;9.90;;;;;;;7.66;100.00;99419.49;104901;1274;59628;-71
2022/01/02 08:37:49;;;;;;;18.70;8.70;;;;;;;7.70;100.00;99412.33;104770;1276;72648;-71
2022/01/02 08:40:41;;;;;;;19.30;8.60;;;;;;;7.71;100.00;99403.10;104944;1274;68111;-70
2022/01/02 08:43:34;;;;;;;16.80;8.10;;;;;;;7.71;100.00;99396.34;105427;1274;71582;-71
2022/01/02 08:47:08;;;;;;;18.10;8.50;;;;;;;7.72;100.00;99387.28;104778;1275;59835;-71
2022/01/02 08:50:08;;;;;;;17.70;8.60;;;;;;;7.74;100.00;99393.86;105223;1276;59267;-71
2022/01/02 08:53:32;;;;;;;20.70;9.10;;;;;;;7.78;100.00;99392.28;105030;1276;72404;-70
2022/01/02 08:56:29;;;;;;;19.30;8.20;;;;;;;7.81;100.00;99379.14;104960;1274;67264;-71
2022/01/02 08:59:36;;;;;;;18.40;8.80;;;;;;;7.83;100.00;99370.70;105113;1274;73504;-70
2022/01/02 09:02:27;;;;;;;18.80;9.00;;;;;;;7.83;100.00;99371.74;105115;1275;59520;-70
2022/01/02 09:05:31;;;;;;;17.90;8.90;;;;;;;7.84;100.00;99358.24;105337;1277;59417;-71
2022/01/02 09:08:38;;;;;;;18.20;8.30;;;;;;;7.84;100.00;99354.35;104807;1277;72564;-70
2022/01/02 09:12:12;;;;;;;17.70;8.70;;;;;;;7.85;100.00;99339.70;105150;1277;66773;-70
2022/01/02 09:15:35;;;;;;;18.00;8.10;;;;;;;7.83;100.00;99336.11;105398;1275;72875;-72
2022/01/02 09:18:51;;;;;;;18.80;9.10;;;;;;;7.82;100.00;99323.10;105218;1274;59301;-71
2022/01/02 09:32:07;;;;;;;18.90;9.00;;;;;;;7.81;100.00;99281.87;103810;1288;66671;-71
2022/01/02 09:35:03;;;;;;;15.50;7.80;;;;;;;7.79;100.00;99272.67;104007;1287;73300;-71
2022/01/02 09:37:58;;;;;;;17.10;8.30;;;;;;;7.80;100.00;99271.34;103406;1287;59350;-71
2022/01/02 09:41:13;;;;;;;17.70;9.10;;;;;;;7.81;100.00;99266.17;103695;1288;59522;-71
2022/01/02 09:44:20;;;;;;;18.50;8.20;;;;;;;7.80;100.00;99249.13;103844;1287;71682;-71
2022/01/02 09:47:15;;;;;;;14.60;7.90;;;;;;;7.80;100.00;99236.02;103492;1289;68347;-70
2022/01/02 09:50:51;;;;;;;17.90;8.20;;;;;;;7.84;100.00;99238.16;103674;1281;72807;-70
2022/01/02 09:54:02;;;;;;;17.40;8.40;;;;;;;7.90;100.00;99237.70;104461;1281;59187;-70
2022/01/02 09:57:40;;;;;;;16.50;7.80;;;;;;;7.95;100.00;99236.05;104524;1281;60457;-70
2022/01/02 10:00:33;;;;;;;15.10;8.10;;;;;;;8.00;100.00;99232.48;104717;1281;71724;-70
2022/01/02 10:03:41;;;;;;;17.20;8.80;;;;;;;8.02;100.00;99222.95;104412;1281;67870;-70
2022/01/02 10:06:46;;;;;;;14.20;7.00;;;;;;;8.04;100.00;99217.53;104354;1278;73265;-71
2022/01/02 10:09:43;;;;;;;14.70;7.40;;;;;;;8.03;100.00;99205.09;104880;1277;59292;-71
2022/01/02 10:12:46;;;;;;;15.60;8.40;;;;;;;8.03;100.00;99196.27;105297;1274;59505;-71
2022/01/02 10:15:42;;;;;;;15.10;7.30;;;;;;;8.00;100.00;99190.42;105507;1274;71132;-72
2022/01/02 10:18:38;;;;;;;16.20;8.10;;;;;;;7.97;100.00;99187.18;105056;1274;66998;-72
2022/01/02 10:21:59;;;;;;;16.20;8.00;;;;;;;7.98;100.00;99183.76;105179;1274;72655;-72
2022/01/02 10:24:48;;;;;;;15.90;7.60;;;;;;;7.97;100.00;99169.48;105009;1274;59312;-73
2022/01/02 10:27:42;;;;;;;16.00;7.70;;;;;;;7.99;100.00;99175.67;105040;1274;59356;-72
2022/01/02 10:31:10;;;;;;;13.90;7.00;;;;;;;8.04;100.00;99166.16;97330;1277;73131;-73
2022/01/02 10:34:10;;;;;;;16.20;7.60;;;;;;;8.05;100.00;99158.83;105184;1274;59245;-73
2022/01/02 10:37:03;;;;;;;19.80;7.60;;;;;;;8.07;100.00;99150.52;104987;1274;59568;-73
2022/01/02 10:40:01;;;;;;;12.00;6.20;;;;;;;8.08;100.00;99145.11;104943;1274;71428;-73
2022/01/02 10:43:33;;;;;;;13.40;6.90;;;;;;;8.09;100.00;99141.02;105140;1275;68262;-73
2022/01/02 10:46:38;;;;;;;13.70;6.30;;;;;;;8.09;100.00;99129.14;104997;1274;73238;-74
2022/01/02 10:50:47;;;;;;;11.70;6.10;;;;;;;8.09;100.00;99132.67;105044;1274;59371;-73
2022/01/02 10:54:07;;;;;;;;;;;;;;;;;;;;;
2022/01/02 10:57:07;;;;;;;13.60;6.20;;;;;;;8.07;100.00;99130.20;105289;1274;72385;-71
2022/01/02 11:00:10;;;;;;;12.50;6.40;;;;;;;8.08;100.00;99126.77;105204;1274;67428;-72
2022/01/02 11:03:06;;;;;;;14.80;6.90;;;;;;;8.09;100.00;99123.66;105164;1277;71405;-73
2022/01/02 11:06:13;;;;;;;14.10;6.70;;;;;;;8.09;100.00;99118.00;104907;1274;59407;-71
2022/01/02 11:09:07;;;;;;;14.20;7.00;;;;;;;8.11;100.00;99118.05;105184;1275;59760;-71
2022/01/02 11:12:55;;;;;;;17.40;6.30;;;;;;;8.11;100.00;99108.82;105067;1275;71295;-72
2022/01/02 11:19:19;;;;;;;13.40;6.90;;;;;;;8.12;100.00;99089.52;105137;1274;71824;-72
2022/01/02 11:22:59;;;;;;;14.90;7.20;;;;;;;8.12;100.00;99081.32;104967;1274;59420;-71
2022/01/02 11:26:13;;;;;;;12.30;6.30;;;;;;;8.13;100.00;99079.85;105310;1274;60545;-70
2022/01/02 11:29:48;;;;;;;12.80;6.80;;;;;;;8.13;100.00;99068.73;104839;1279;70963;-71
2022/01/02 11:33:25;;;;;;;13.50;6.50;;;;;;;8.11;100.00;99062.73;104509;1281;68023;-70
2022/01/02 11:36:58;;;;;;;12.40;6.40;;;;;;;8.09;100.00;99062.91;105485;1279;71680;-69
2022/01/02 11:40:56;;;;;;;;;;;;;;;;;;;;;
2022/01/02 11:50:12;;;;;;;;;;;;;;;;;;;;;
2022/01/02 11:55:07;;;;;;;10.50;5.10;;;;;;;8.12;100.00;99033.44;104220;1282;69422;-69
2022/01/02 12:03:51;;;;;;;11.30;4.60;;;;;;;8.11;100.00;99013.46;104323;1282;59346;-70
2022/01/02 12:07:37;;;;;;;8.60;4.10;;;;;;;8.10;100.00;99008.94;104500;1277;60429;-70
2022/01/02 12:11:32;;;;;;;9.90;4.40;;;;;;;8.08;100.00;99004.18;104848;1282;72372;-69
2022/01/02 12:20:03;;;;;;;10.20;4.50;;;;;;;8.07;100.00;98996.09;103953;1285;72112;-69
2022/01/02 12:24:44;;;;;;;11.00;4.50;;;;;;;8.07;100.00;98991.83;104370;1281;61168;-69
2022/01/02 12:28:47;;;;;;;10.00;4.70;;;;;;;8.05;100.00;98985.50;104558;1281;61986;-69
2022/01/02 12:31:58;;;;;;;11.30;4.60;;;;;;;8.04;100.00;98983.52;104270;1282;72307;-70
2022/01/02 12:36:23;;;;;;;12.10;5.50;;;;;;;8.03;100.00;98972.75;104511;1282;66938;-69
2022/01/02 12:55:20;;;;;;;10.60;4.40;;;;;;;8.06;100.00;98941.95;104052;1284;73836;-69
2022/01/02 13:02:28;;;;;;;9.40;4.00;;;;;;;8.06;100.00;98936.98;104113;1282;70844;-70
2022/01/02 13:05:28;;;;;;;11.40;5.40;;;;;;;8.04;100.00;98932.59;104161;1282;59545;-70
2022/01/02 13:08:42;;;;;;;12.20;4.80;;;;;;;8.01;100.00;98929.41;104096;1282;60628;-69
2022/01/02 13:12:46;;;;;;;10.50;4.50;;;;;;;8.02;100.00;98932.55;104167;1282;71721;-70
2022/01/02 13:21:24;;;;;;;10.70;4.50;;;;;;;8.01;100.00;98936.33;103853;1286;74223;-69
2022/01/02 13:35:57;;;;;;;10.50;4.10;;;;;;;8.08;100.00;98924.30;104025;1286;72553;-70
2022/01/02 13:50:01;;;;;;;8.70;3.60;;;;;;;8.12;100.00;98916.55;102766;1296;61209;-70
2022/01/02 13:57:15;;;;;;;7.70;2.80;;;;;;;8.10;100.00;98901.73;103368;1288;71144;-70
2022/01/02 15:06:03;;;;;;;9.90;4.70;;;;;;;7.97;100.00;98789.00;104129;1285;59450;-70
2022/01/02 15:09:30;;;;;;;8.80;3.90;;;;;;;7.97;100.00;98776.48;104090;1285;59384;-69
2022/01/02 15:14:42;;;;;;;8.70;3.50;;;;;;;8.00;100.00;98773.54;104278;1287;72457;-69
2022/01/02 15:20:10;;;;;;;8.30;3.90;;;;;;;8.02;100.00;98758.59;104209;1287;69398;-69
2022/01/02 15:29:54;;;;;;;8.80;3.70;;;;;;;7.97;100.00;98731.27;103788;1287;59291;-69
2022/01/02 15:32:44;;;;;;;10.10;4.10;;;;;;;7.96;100.00;98729.73;103974;1287;60719;-69
2022/01/02 15:35:43;;;;;;;9.00;3.80;;;;;;;7.96;100.00;98735.04;103685;1288;71523;-68
2022/01/02 15:38:56;;;;;;;8.70;3.90;;;;;;;7.97;100.00;98728.12;104105;1284;66966;-69
2022/01/02 15:42:10;;;;;;;9.10;3.70;;;;;;;7.97;100.00;98712.05;104117;1282;71455;-68
2022/01/02 15:45:00;;;;;;;9.00;4.40;;;;;;;7.98;100.00;98708.59;104139;1282;60163;-68
2022/01/02 15:47:54;;;;;;;8.80;3.50;;;;;;;7.99;100.00;98705.14;104228;1282;59689;-68
2022/01/02 15:50:46;;;;;;;8.70;3.80;;;;;;;7.98;100.00;98697.65;103991;1284;71267;-68
2022/01/02 15:53:56;;;;;;;9.20;4.30;;;;;;;7.97;100.00;98684.83;104446;1281;68378;-69
2022/01/02 15:57:15;;;;;;;9.90;4.30;;;;;;;7.95;100.00;98667.35;104630;1281;74343;-68
2022/01/02 16:00:21;;;;;;;10.50;4.00;;;;;;;7.95;100.00;98660.63;104507;1274;59524;-68
2022/01/02 16:07:21;;;;;;;9.80;4.20;;;;;;;7.92;100.00;98622.05;105382;1274;72268;-68
2022/01/02 16:16:06;;;;;;;10.50;4.00;;;;;;;7.87;100.00;98635.24;104448;1279;74060;-70
2022/01/02 16:19:15;;;;;;;11.60;4.50;;;;;;;7.84;100.00;98632.43;104646;1279;59490;-69
2022/01/02 16:22:07;;;;;;;9.60;4.00;;;;;;;7.84;100.00;98631.95;104293;1279;59402;-69
2022/01/02 16:25:12;;;;;;;11.70;4.40;;;;;;;7.83;100.00;98627.77;104448;1279;70373;-69
2022/01/02 16:28:02;;;;;;;9.80;4.70;;;;;;;7.85;100.00;98630.63;104477;1279;67972;-69
2022/01/02 16:31:01;;;;;;;12.50;5.40;;;;;;;7.85;100.00;98630.77;104104;1279;73022;-69
2022/01/02 16:34:30;;;;;;;12.20;5.80;;;;;;;7.88;100.00;98620.52;105211;1279;59306;-69
2022/01/02 16:37:46;;;;;;;14.50;6.00;;;;;;;7.88;100.00;98609.40;104563;1279;60723;-69
2022/01/02 16:41:24;;;;;;;12.90;6.30;;;;;;;7.88;100.00;98602.27;104547;1279;73789;-70
2022/01/02 16:44:58;;;;;;;11.00;5.10;;;;;;;7.89;100.00;98599.02;104491;1279;69657;-69
2022/01/02 16:53:01;;;;;;;12.60;6.20;;;;;;;7.93;100.00;98570.22;105281;1274;62833;-69
2022/01/02 16:56:11;;;;;;;17.00;6.00;;;;;;;7.93;100.00;98557.31;104752;1274;59350;-69
2022/01/02 16:59:12;;;;;;;12.90;6.50;;;;;;;7.92;100.00;98550.17;104706;1274;71334;-69
2022/01/02 17:02:10;;;;;;;14.60;6.90;;;;;;;7.92;100.00;98545.23;104888;1276;66665;-70
2022/01/02 17:05:05;;;;;;;13.50;6.50;;;;;;;7.93;100.00;98540.42;104869;1274;73541;-69
2022/01/02 17:09:36;;;;;;;10.80;5.30;;;;;;;7.93;100.00;98522.88;105226;1274;59429;-70
2022/01/02 17:14:33;;;;;;;;;;;;;;;;;;;;;
2022/01/02 17:18:17;;;;;;;13.00;6.20;;;;;;;7.97;100.00;98504.70;104947;1276;72552;-69
2022/01/02 17:22:11;;;;;;;11.70;5.10;;;;;;;8.02;100.00;98490.27;105264;1276;68565;-70
2022/01/02 17:25:18;;;;;;;13.30;5.90;;;;;;;8.04;100.00;98479.81;105116;1274;73050;-70
2022/01/02 17:28:10;;;;;;;10.50;4.70;;;;;;;8.07;100.00;98475.52;105200;1274;59419;-70
2022/01/02 17:41:57;;;;;;;;;;;;;;;;;;;;;
2022/01/02 17:52:22;;;;;;;8.10;3.60;;;;;;;8.43;100.00;98429.58;103588;1290;61096;-69
2022/01/02 17:56:12;;;;;;;8.90;3.60;;;;;;;8.49;100.00;98423.58;102653;1302;59571;-70
2022/01/02 18:00:52;;;;;;;8.80;3.80;;;;;;;8.57;100.00;98409.77;103386;1301;72823;-71
2022/01/02 18:05:10;;;;;;;8.10;3.30;;;;;;;8.66;100.00;98402.38;102178;1312;615841;-70
2022/01/02 18:10:06;;;;;;;7.90;2.80;;;;;;;8.74;100.00;98391.66;104133;1286;59536;-71
2022/01/02 18:22:23;;;;;;;;;;;;;;;;;;;;;